Time;durP1;ratioP1;P1;durP2;ratioP2;P2;SDS_P1;SDS_P2;PMS_P1;PMS_P2;Temp;Humidity;BMP_temperature;BMP_pressure;BME280_temperature;BME280_humidity;BME280_pressure;Samples;Min_cycle;Max_cycle;Signal;HPM_P1;HPM_P2
2024/01/23 00:02:01;;;;;;;27.85;2.70;;;6.20;99.90;;;;;;6343111;22;20098;-87
2024/01/23 00:04:30;;;;;;;29.15;3.38;;;6.30;99.90;;;;;;6343161;22;20085;-86
2024/01/23 00:06:55;;;;;;;19.23;2.95;;;6.30;99.90;;;;;;6317609;22;20378;-85
2024/01/23 00:09:21;;;;;;;24.65;3.47;;;6.30;99.90;;;;;;6343085;22;20006;-85
2024/01/23 00:11:46;;;;;;;25.35;3.42;;;6.30;99.90;;;;;;6343537;22;20041;-85
2024/01/23 00:14:12;;;;;;;15.82;2.65;;;6.30;99.90;;;;;;6343225;22;20003;-86
2024/01/23 00:16:38;;;;;;;22.05;4.20;;;6.20;99.90;;;;;;6343044;22;20010;-86
2024/01/23 00:19:03;;;;;;;33.33;3.70;;;6.20;99.90;;;;;;6343082;22;20002;-85
2024/01/23 00:21:29;;;;;;;27.27;3.17;;;6.20;99.90;;;;;;6342934;22;20014;-86
2024/01/23 00:23:55;;;;;;;26.52;2.45;;;6.20;99.90;;;;;;6343015;22;20063;-85
2024/01/23 00:26:21;;;;;;;27.58;4.63;;;6.20;99.90;;;;;;6371195;22;20032;-85
2024/01/23 00:28:47;;;;;;;23.63;3.42;;;6.20;99.90;;;;;;6342550;22;20078;-85
2024/01/23 00:31:13;;;;;;;18.95;3.30;;;6.20;99.90;;;;;;6370833;22;20077;-84
2024/01/23 00:33:39;;;;;;;17.33;3.05;;;6.20;99.90;;;;;;6342878;22;20034;-85
2024/01/23 00:36:05;;;;;;;20.30;4.30;;;6.20;99.90;;;;;;6342068;22;20002;-85
2024/01/23 00:38:31;;;;;;;19.88;3.33;;;6.20;99.90;;;;;;6342399;22;20006;-86
2024/01/23 00:40:57;;;;;;;24.77;3.95;;;6.20;99.90;;;;;;6342254;22;20067;-85
2024/01/23 00:55:53;;;;;;;30.00;3.70;;;6.20;99.90;;;;;;6299036;22;20420;-84
2024/01/23 00:58:18;;;;;;;26.85;4.30;;;6.20;99.90;;;;;;6339634;22;20070;-86
2024/01/23 01:00:44;;;;;;;29.50;2.95;;;6.20;99.90;;;;;;6311532;22;20039;-84
2024/01/23 01:03:11;;;;;;;25.83;4.05;;;6.20;99.90;;;;;;6312297;22;20397;-85
2024/01/23 01:05:38;;;;;;;24.60;3.55;;;6.20;99.90;;;;;;6339433;22;19999;-85
2024/01/23 01:08:05;;;;;;;40.88;4.25;;;6.20;99.90;;;;;;6339634;22;19994;-85
2024/01/23 01:10:30;;;;;;;26.05;3.40;;;6.20;99.90;;;;;;6339405;22;20452;-85
2024/01/23 01:12:56;;;;;;;25.10;3.42;;;6.20;99.90;;;;;;6312102;22;20002;-86
2024/01/23 01:15:22;;;;;;;28.25;4.60;;;6.20;99.90;;;;;;6312032;22;20011;-85
2024/01/23 01:17:48;;;;;;;21.30;4.03;;;6.20;99.90;;;;;;6311899;22;20418;-85
2024/01/23 01:20:13;;;;;;;30.52;3.25;;;6.10;99.90;;;;;;6337934;22;20383;-86
2024/01/23 01:22:39;;;;;;;26.05;3.05;;;6.10;99.90;;;;;;6311622;22;20003;-86
2024/01/23 01:25:05;;;;;;;21.40;3.53;;;6.10;99.90;;;;;;6311742;22;20002;-85
2024/01/23 01:27:31;;;;;;;43.60;4.63;;;6.10;99.90;;;;;;6339551;22;20386;-85
2024/01/23 01:29:57;;;;;;;26.73;3.88;;;6.00;99.90;;;;;;6311743;22;19999;-86
2024/01/23 01:32:22;;;;;;;31.50;4.00;;;6.00;99.90;;;;;;6311745;22;20011;-84
2024/01/23 01:34:48;;;;;;;34.22;4.95;;;6.00;99.90;;;;;;6337801;22;19999;-86
2024/01/23 01:37:14;;;;;;;31.08;4.32;;;6.00;99.90;;;;;;6339392;22;20007;-87
2024/01/23 01:39:39;;;;;;;32.42;4.18;;;6.00;99.90;;;;;;6311457;22;20025;-87
2024/01/23 01:42:05;;;;;;;35.35;5.05;;;6.00;99.90;;;;;;6311399;22;20013;-86
2024/01/23 01:44:32;;;;;;;24.67;3.47;;;6.00;99.90;;;;;;6311743;22;19999;-86
2024/01/23 01:46:58;;;;;;;33.75;4.32;;;6.00;99.90;;;;;;6311365;22;20013;-86
2024/01/23 01:49:25;;;;;;;38.60;4.80;;;6.00;99.90;;;;;;6311237;22;20003;-86
2024/01/23 01:51:52;;;;;;;18.55;3.17;;;5.90;99.90;;;;;;6311381;22;20093;-86
2024/01/23 01:54:19;;;;;;;27.70;3.35;;;5.90;99.90;;;;;;6339113;22;20001;-87
2024/01/23 01:56:45;;;;;;;32.42;4.45;;;5.90;99.90;;;;;;6311290;22;20018;-86
2024/01/23 01:59:11;;;;;;;37.38;4.43;;;5.90;99.90;;;;;;6339249;22;20303;-84
2024/01/23 02:01:37;;;;;;;26.33;4.07;;;5.90;99.90;;;;;;6311209;22;20014;-87
2024/01/23 02:04:03;;;;;;;23.75;3.53;;;5.90;99.90;;;;;;6339070;22;19999;-87
2024/01/23 02:06:30;;;;;;;30.85;3.25;;;5.80;99.90;;;;;;6338123;22;20052;-87
2024/01/23 02:08:57;;;;;;;21.50;4.10;;;5.80;99.90;;;;;;6339014;22;19998;-87
2024/01/23 02:11:22;;;;;;;33.30;4.53;;;5.80;99.90;;;;;;6338871;22;19991;-86
2024/01/23 02:13:48;;;;;;;25.45;3.20;;;5.80;99.90;;;;;;6339059;22;20074;-86
2024/01/23 02:16:14;;;;;;;29.92;6.40;;;5.80;99.90;;;;;;6311381;22;20017;-86
2024/01/23 02:18:40;;;;;;;23.50;2.80;;;5.80;99.90;;;;;;6311268;22;20010;-86
2024/01/23 02:21:07;;;;;;;26.73;3.30;;;5.80;99.90;;;;;;6311464;22;20010;-86
2024/01/23 02:23:33;;;;;;;36.67;4.07;;;5.80;99.90;;;;;;6311371;22;20421;-86
2024/01/23 02:25:59;;;;;;;27.00;4.30;;;5.80;99.90;;;;;;6311369;22;20018;-86
2024/01/23 02:28:24;;;;;;;25.60;4.57;;;5.80;99.90;;;;;;6311486;22;19999;-86
2024/01/23 02:30:50;;;;;;;23.17;3.10;;;5.70;99.90;;;;;;6339313;22;20069;-88
2024/01/23 02:33:16;;;;;;;24.33;3.33;;;5.70;99.90;;;;;;6339665;22;20349;-86
2024/01/23 02:35:41;;;;;;;28.20;3.88;;;5.70;99.90;;;;;;6311156;22;20488;-86
2024/01/23 02:38:08;;;;;;;31.52;5.45;;;5.70;99.90;;;;;;6310897;22;20010;-86
2024/01/23 02:40:35;;;;;;;25.15;3.78;;;5.60;99.90;;;;;;6310904;22;20021;-87
2024/01/23 02:43:01;;;;;;;38.40;4.13;;;5.60;99.90;;;;;;6310947;22;20013;-88
2024/01/23 02:45:27;;;;;;;30.55;5.00;;;5.60;99.90;;;;;;6338712;22;20048;-87
2024/01/23 02:47:53;;;;;;;28.35;4.68;;;5.60;99.90;;;;;;6311199;22;20086;-86
2024/01/23 02:50:19;;;;;;;25.73;3.45;;;5.50;99.90;;;;;;6310940;22;19999;-86
2024/01/23 02:52:44;;;;;;;40.58;6.28;;;5.50;99.90;;;;;;6310977;22;20007;-86
2024/01/23 02:55:10;;;;;;;18.08;3.20;;;5.40;99.90;;;;;;6311244;22;20036;-86
2024/01/23 02:57:36;;;;;;;20.73;3.83;;;5.40;99.90;;;;;;6338505;22;20017;-86
2024/01/23 03:00:02;;;;;;;29.67;3.63;;;5.40;99.90;;;;;;6310585;22;20017;-86
2024/01/23 03:02:28;;;;;;;41.78;6.15;;;5.30;99.90;;;;;;6310953;22;20006;-86
2024/01/23 03:04:54;;;;;;;15.40;2.58;;;5.30;99.90;;;;;;6339031;22;20382;-87
2024/01/23 03:07:20;;;;;;;27.52;3.75;;;5.20;99.90;;;;;;6310774;22;20339;-86
2024/01/23 03:09:45;;;;;;;31.75;3.92;;;5.20;99.90;;;;;;6311129;22;20078;-86
2024/01/23 03:12:19;;;;;;;20.52;4.03;;;5.20;99.90;;;;;;6311244;22;20029;-86
2024/01/23 03:14:46;;;;;;;26.83;3.00;;;5.20;99.90;;;;;;6338527;22;20003;-86
2024/01/23 03:17:13;;;;;;;24.55;4.00;;;5.10;99.90;;;;;;6310910;22;20010;-86
2024/01/23 03:19:39;;;;;;;27.60;4.30;;;5.10;99.90;;;;;;6338387;22;20066;-86
2024/01/23 03:22:06;;;;;;;24.35;3.70;;;5.10;99.90;;;;;;6338415;22;19999;-86
2024/01/23 03:24:31;;;;;;;25.17;3.60;;;5.10;99.90;;;;;;6339798;22;19995;-85
2024/01/23 03:26:57;;;;;;;21.90;4.18;;;5.00;99.90;;;;;;6312918;22;20014;-86
2024/01/23 03:29:24;;;;;;;24.15;3.63;;;5.00;99.90;;;;;;6340437;22;20003;-86
2024/01/23 03:31:50;;;;;;;30.23;4.53;;;5.00;99.90;;;;;;6340544;22;20098;-86
2024/01/23 03:34:17;;;;;;;19.92;3.50;;;5.00;99.90;;;;;;6312753;22;19999;-85
2024/01/23 03:36:42;;;;;;;31.88;3.92;;;5.00;99.90;;;;;;6312662;22;20433;-86
2024/01/23 03:39:08;;;;;;;39.30;3.90;;;5.00;99.90;;;;;;6312593;22;20094;-86
2024/01/23 03:41:37;;;;;;;23.40;3.67;;;5.10;99.90;;;;;;6340387;22;20071;-86
2024/01/23 03:44:05;;;;;;;29.75;3.90;;;5.00;99.90;;;;;;6312717;22;20003;-85
2024/01/23 03:46:31;;;;;;;35.28;4.28;;;5.00;99.90;;;;;;6312886;22;20482;-86
2024/01/23 03:48:56;;;;;;;26.17;4.28;;;5.00;99.90;;;;;;6338465;22;19999;-87
2024/01/23 03:51:22;;;;;;;28.60;4.15;;;5.00;99.90;;;;;;6338666;22;20013;-86
2024/01/23 03:53:48;;;;;;;20.77;2.85;;;5.10;99.90;;;;;;6338641;22;20422;-86
2024/01/23 03:56:14;;;;;;;30.35;3.85;;;5.00;99.90;;;;;;6338374;22;20018;-87
2024/01/23 03:58:43;;;;;;;32.30;3.63;;;5.00;99.90;;;;;;6312512;22;20018;-87
2024/01/23 04:01:09;;;;;;;26.58;3.58;;;5.00;99.90;;;;;;6312629;22;20117;-86
2024/01/23 04:03:34;;;;;;;39.08;7.13;;;5.00;99.90;;;;;;6338457;22;20027;-86
2024/01/23 04:06:01;;;;;;;22.23;3.88;;;4.90;99.90;;;;;;6313184;22;20006;-87
2024/01/23 04:08:26;;;;;;;17.08;3.25;;;4.90;99.90;;;;;;6339811;22;19999;-86
2024/01/23 04:10:52;;;;;;;33.92;5.20;;;4.90;99.90;;;;;;6312512;22;20340;-86
2024/01/23 04:13:18;;;;;;;27.88;5.25;;;4.80;99.90;;;;;;6312764;22;20090;-86
2024/01/23 04:15:44;;;;;;;21.35;2.97;;;4.80;99.90;;;;;;6312669;22;20045;-86
2024/01/23 04:18:10;;;;;;;31.70;4.57;;;4.70;99.90;;;;;;6338319;22;20112;-86
2024/01/23 04:20:37;;;;;;;38.20;6.13;;;4.70;99.90;;;;;;6312223;22;20015;-86
2024/01/23 04:23:03;;;;;;;35.40;6.93;;;4.70;99.90;;;;;;6312348;22;19999;-86
2024/01/23 04:25:29;;;;;;;28.58;3.63;;;4.60;99.90;;;;;;6312432;22;20007;-86
2024/01/23 04:27:57;;;;;;;32.00;3.63;;;4.60;99.90;;;;;;6312492;22;20317;-86
2024/01/23 04:30:23;;;;;;;24.77;3.15;;;4.60;99.90;;;;;;6312452;22;20033;-87
2024/01/23 04:32:48;;;;;;;22.55;3.30;;;4.50;99.90;;;;;;6312350;22;20425;-86
2024/01/23 04:35:14;;;;;;;27.90;5.25;;;4.50;99.90;;;;;;6312149;22;20137;-88
2024/01/23 04:37:40;;;;;;;31.98;3.85;;;4.50;99.90;;;;;;6312258;22;20007;-86
2024/01/23 04:40:08;;;;;;;40.80;4.88;;;4.50;99.90;;;;;;6312112;22;20429;-86
2024/01/23 04:42:36;;;;;;;22.88;3.13;;;4.40;99.90;;;;;;6312272;22;20002;-86
2024/01/23 04:45:03;;;;;;;26.70;3.17;;;4.40;99.90;;;;;;6339980;22;20007;-86
2024/01/23 04:47:28;;;;;;;28.67;4.45;;;4.40;99.90;;;;;;6312215;22;20055;-86
2024/01/23 04:49:54;;;;;;;34.13;5.35;;;4.30;99.90;;;;;;6312231;22;20003;-87
2024/01/23 04:52:21;;;;;;;33.08;3.67;;;4.30;99.90;;;;;;6312189;22;20007;-87
2024/01/23 04:54:47;;;;;;;24.90;3.53;;;4.30;99.90;;;;;;6312014;22;20014;-86
2024/01/23 04:57:14;;;;;;;32.35;3.92;;;4.30;99.90;;;;;;6311748;22;20025;-86
2024/01/23 04:59:40;;;;;;;39.83;4.07;;;4.30;99.90;;;;;;6312225;22;20013;-87
2024/01/23 05:02:06;;;;;;;18.98;4.60;;;4.30;99.90;;;;;;6311876;22;20003;-86
2024/01/23 05:04:32;;;;;;;20.30;3.20;;;4.20;99.90;;;;;;6338036;22;20129;-86
2024/01/23 05:06:57;;;;;;;34.63;3.90;;;4.20;99.90;;;;;;6312011;22;20017;-87
2024/01/23 05:09:23;;;;;;;31.42;4.38;;;4.20;99.90;;;;;;6337773;22;20003;-85
2024/01/23 05:11:49;;;;;;;30.55;4.13;;;4.20;99.90;;;;;;6311885;22;20003;-86
2024/01/23 05:14:17;;;;;;;35.47;4.43;;;4.20;99.90;;;;;;6312144;22;20033;-85
2024/01/23 05:16:43;;;;;;;42.47;4.82;;;4.20;99.90;;;;;;6311962;22;19999;-86
2024/01/23 05:19:09;;;;;;;33.22;6.50;;;4.20;99.90;;;;;;6339883;22;20003;-85
2024/01/23 05:21:35;;;;;;;25.45;3.60;;;4.10;99.90;;;;;;6311713;22;20465;-84
2024/01/23 05:24:02;;;;;;;27.27;4.05;;;4.10;99.90;;;;;;6338006;22;20052;-86
2024/01/23 05:26:28;;;;;;;34.80;7.15;;;4.10;99.90;;;;;;6337716;22;20003;-86
2024/01/23 05:28:54;;;;;;;34.53;5.40;;;4.10;99.90;;;;;;6311573;22;20463;-85
2024/01/23 05:31:20;;;;;;;32.15;5.18;;;4.10;99.90;;;;;;6311563;22;20002;-85
2024/01/23 05:33:45;;;;;;;31.73;4.47;;;4.10;99.90;;;;;;6337914;22;20002;-85
2024/01/23 05:36:11;;;;;;;18.33;3.05;;;4.20;99.90;;;;;;6337678;22;20437;-85
2024/01/23 05:38:37;;;;;;;21.77;3.80;;;4.10;99.90;;;;;;6311634;22;20082;-84
2024/01/23 05:41:03;;;;;;;18.65;3.97;;;4.10;99.90;;;;;;6337713;22;20011;-87
2024/01/23 05:43:28;;;;;;;30.40;3.53;;;4.10;99.90;;;;;;6311655;22;19995;-86
2024/01/23 05:45:54;;;;;;;28.73;3.38;;;4.10;99.90;;;;;;6311357;22;20078;-85
2024/01/23 05:48:20;;;;;;;29.45;3.58;;;4.10;99.90;;;;;;6311653;22;20029;-85
2024/01/23 05:50:46;;;;;;;24.25;2.92;;;4.00;99.90;;;;;;6311890;22;20003;-85
2024/01/23 05:53:11;;;;;;;27.33;3.95;;;4.00;99.90;;;;;;6311610;22;20442;-85
2024/01/23 05:55:37;;;;;;;31.67;3.92;;;4.00;99.90;;;;;;6316729;22;20014;-86
2024/01/23 05:58:03;;;;;;;31.48;5.68;;;3.90;99.90;;;;;;6343317;22;20002;-85
2024/01/23 06:00:29;;;;;;;25.13;3.45;;;3.90;99.90;;;;;;6342792;22;20011;-85
2024/01/23 06:02:55;;;;;;;37.13;3.78;;;3.90;99.90;;;;;;6370789;22;20022;-85
2024/01/23 06:05:20;;;;;;;29.42;4.43;;;3.90;99.90;;;;;;6342837;22;20325;-85
2024/01/23 06:07:49;;;;;;;18.77;2.65;;;3.90;99.90;;;;;;6343014;22;20067;-85
2024/01/23 06:10:16;;;;;;;31.48;3.70;;;3.90;99.90;;;;;;6343843;22;20421;-85
2024/01/23 06:12:42;;;;;;;21.88;3.92;;;4.00;99.90;;;;;;6342586;22;19998;-86
2024/01/23 06:15:08;;;;;;;27.00;4.00;;;3.90;99.90;;;;;;6370488;22;20021;-85
2024/01/23 06:17:34;;;;;;;25.20;3.90;;;4.00;99.90;;;;;;6370780;22;20444;-87
2024/01/23 06:20:03;;;;;;;25.77;3.40;;;4.00;99.90;;;;;;6342639;22;20038;-86
2024/01/23 06:22:30;;;;;;;29.23;4.63;;;4.00;99.90;;;;;;6342519;22;20075;-85
2024/01/23 06:25:06;;;;;;;40.88;3.95;;;4.00;99.90;;;;;;6342629;22;20010;-86
2024/01/23 06:27:32;;;;;;;37.88;3.55;;;4.00;99.90;;;;;;6342352;22;20005;-85
2024/01/23 06:29:58;;;;;;;29.40;4.28;;;4.10;99.90;;;;;;6342957;22;20093;-85
2024/01/23 06:32:24;;;;;;;36.28;4.68;;;4.10;99.90;;;;;;6344595;22;20002;-85
2024/01/23 06:34:51;;;;;;;29.83;3.97;;;4.20;99.90;;;;;;6344180;22;20006;-86
2024/01/23 06:37:18;;;;;;;28.02;3.63;;;4.30;99.90;;;;;;6344347;22;20033;-86
2024/01/23 06:39:43;;;;;;;29.73;4.97;;;4.30;99.90;;;;;;6343296;22;20006;-85
2024/01/23 06:42:09;;;;;;;23.08;3.28;;;4.40;99.90;;;;;;6342748;22;20017;-85
2024/01/23 06:44:35;;;;;;;25.42;3.85;;;4.40;99.90;;;;;;6343788;22;20010;-86
2024/01/23 06:47:01;;;;;;;36.65;4.97;;;4.50;99.90;;;;;;6372466;22;20010;-85
2024/01/23 06:49:27;;;;;;;22.13;2.67;;;4.50;99.90;;;;;;6371749;22;20017;-86
2024/01/23 06:51:52;;;;;;;25.45;3.47;;;4.50;99.90;;;;;;6344255;22;19994;-86
2024/01/23 06:54:18;;;;;;;33.70;3.00;;;4.60;99.90;;;;;;6343275;22;19999;-85
2024/01/23 06:56:45;;;;;;;27.08;2.97;;;4.60;99.90;;;;;;6342801;22;20014;-84
2024/01/23 06:59:12;;;;;;;30.45;5.88;;;4.60;99.90;;;;;;6372052;22;20052;-85
2024/01/23 07:01:38;;;;;;;36.08;4.68;;;4.60;99.90;;;;;;6344499;22;20021;-86
2024/01/23 07:04:04;;;;;;;23.95;4.90;;;4.60;99.90;;;;;;6344786;22;20371;-85
2024/01/23 07:06:30;;;;;;;25.27;2.75;;;4.60;99.90;;;;;;6344671;22;20002;-86
2024/01/23 07:08:55;;;;;;;21.83;2.45;;;4.60;99.90;;;;;;6344569;22;20081;-84
2024/01/23 07:11:21;;;;;;;23.55;3.33;;;4.60;99.90;;;;;;6344770;22;20081;-85
2024/01/23 07:13:47;;;;;;;25.90;2.92;;;4.60;99.90;;;;;;6344374;22;20336;-86
2024/01/23 07:16:13;;;;;;;33.67;3.35;;;4.60;99.90;;;;;;6344194;22;20437;-86
2024/01/23 07:18:38;;;;;;;22.95;3.40;;;4.60;99.90;;;;;;6372554;22;20003;-85
2024/01/23 07:21:04;;;;;;;26.63;3.85;;;4.60;99.90;;;;;;6344242;22;20136;-87
2024/01/23 07:23:33;;;;;;;26.70;2.85;;;4.60;99.90;;;;;;6344027;22;20010;-86
2024/01/23 07:25:58;;;;;;;32.13;3.70;;;4.60;99.90;;;;;;6344329;22;20010;-86
2024/01/23 07:28:24;;;;;;;39.25;5.18;;;4.60;99.90;;;;;;6344314;22;20055;-85
2024/01/23 07:30:50;;;;;;;24.27;3.25;;;4.60;99.90;;;;;;6343989;22;20016;-85
2024/01/23 07:33:16;;;;;;;23.48;4.22;;;4.60;99.90;;;;;;6344280;22;20085;-85
2024/01/23 07:35:41;;;;;;;24.55;4.45;;;4.60;99.90;;;;;;6344288;22;20003;-85
2024/01/23 07:38:11;;;;;;;22.38;2.83;;;4.60;99.90;;;;;;6344319;22;20002;-86
2024/01/23 07:40:38;;;;;;;32.05;4.32;;;4.60;99.90;;;;;;6343873;22;20021;-87
2024/01/23 07:43:04;;;;;;;39.63;3.70;;;4.60;99.90;;;;;;6343900;22;20306;-85
2024/01/23 07:45:29;;;;;;;21.00;2.95;;;4.60;99.90;;;;;;6344237;22;20162;-85
2024/01/23 07:47:56;;;;;;;24.38;2.75;;;4.60;99.90;;;;;;6318422;22;20433;-86
2024/01/23 07:50:21;;;;;;;23.25;3.20;;;4.60;99.90;;;;;;6372287;22;20025;-86
2024/01/23 07:52:47;;;;;;;25.25;3.25;;;4.60;99.90;;;;;;6344111;22;20007;-85
2024/01/23 07:55:13;;;;;;;28.30;3.83;;;4.60;99.90;;;;;;6344244;22;20007;-86
2024/01/23 07:57:39;;;;;;;23.13;2.90;;;4.70;99.90;;;;;;6313496;22;20430;-85
2024/01/23 08:00:06;;;;;;;25.90;3.30;;;4.70;99.90;;;;;;6313781;22;20037;-84
2024/01/23 08:02:32;;;;;;;25.67;3.88;;;4.70;99.90;;;;;;6314683;22;20030;-84
2024/01/23 08:04:59;;;;;;;27.30;3.75;;;4.70;99.90;;;;;;6312497;22;19998;-84
2024/01/23 08:07:24;;;;;;;22.80;3.75;;;4.70;99.90;;;;;;6313220;22;20093;-87
2024/01/23 08:09:51;;;;;;;32.30;3.85;;;4.70;99.90;;;;;;6340341;22;20026;-84
2024/01/23 08:12:17;;;;;;;35.53;3.67;;;4.70;99.90;;;;;;6340496;22;19998;-85
2024/01/23 08:14:44;;;;;;;30.08;3.67;;;4.70;99.90;;;;;;6312801;22;20007;-84
2024/01/23 08:17:10;;;;;;;34.28;4.70;;;4.70;99.90;;;;;;6312507;22;20041;-84
2024/01/23 08:19:39;;;;;;;31.13;4.53;;;4.70;99.90;;;;;;6311365;22;20021;-86
2024/01/23 08:22:05;;;;;;;25.10;3.45;;;4.70;99.90;;;;;;6312217;22;20003;-87
2024/01/23 08:24:31;;;;;;;31.30;4.40;;;4.70;99.90;;;;;;6312262;22;20006;-84
2024/01/23 08:26:58;;;;;;;32.30;4.50;;;4.70;99.90;;;;;;6312149;22;20042;-84
2024/01/23 08:29:24;;;;;;;25.92;4.90;;;4.70;99.90;;;;;;6340049;22;19999;-85
2024/01/23 08:31:49;;;;;;;35.80;5.07;;;4.70;99.90;;;;;;6340170;22;20006;-85
2024/01/23 08:34:15;;;;;;;27.55;5.28;;;4.60;99.90;;;;;;6312329;22;20426;-85
2024/01/23 08:36:41;;;;;;;27.23;5.18;;;4.60;99.90;;;;;;6312335;22;20064;-87
2024/01/23 08:39:07;;;;;;;29.85;4.35;;;4.60;99.90;;;;;;6312410;22;20014;-85
2024/01/23 08:41:33;;;;;;;26.50;3.90;;;4.60;99.90;;;;;;6312169;22;20075;-85
2024/01/23 08:43:59;;;;;;;25.38;6.10;;;4.50;99.90;;;;;;6312052;22;20026;-87
2024/01/23 08:46:25;;;;;;;30.50;4.50;;;4.50;99.90;;;;;;6312297;22;20056;-86
2024/01/23 08:48:50;;;;;;;27.92;3.90;;;4.50;99.90;;;;;;6312096;22;20006;-88
2024/01/23 08:51:16;;;;;;;27.13;3.13;;;4.50;99.90;;;;;;6312159;22;20094;-86
2024/01/23 08:53:42;;;;;;;21.35;3.40;;;4.50;99.90;;;;;;6312580;22;20374;-86
2024/01/23 08:56:08;;;;;;;20.88;3.85;;;4.50;99.90;;;;;;6317149;22;20010;-86
2024/01/23 08:58:33;;;;;;;26.48;4.15;;;4.50;99.90;;;;;;6343592;22;20071;-85
2024/01/23 09:00:59;;;;;;;28.80;4.07;;;4.50;99.90;;;;;;6343432;22;20017;-86
2024/01/23 09:03:25;;;;;;;39.90;4.82;;;4.50;99.90;;;;;;6343770;22;20445;-85
2024/01/23 09:05:50;;;;;;;26.00;5.15;;;4.50;99.90;;;;;;6344093;22;20006;-87
2024/01/23 09:08:16;;;;;;;25.40;3.78;;;4.50;99.90;;;;;;6343562;22;20078;-86
2024/01/23 09:10:42;;;;;;;26.13;3.72;;;4.50;99.90;;;;;;6343502;22;20475;-86
2024/01/23 09:13:08;;;;;;;26.58;5.03;;;4.50;99.90;;;;;;6343870;22;20447;-88
2024/01/23 09:15:34;;;;;;;23.27;4.80;;;4.50;99.90;;;;;;6343595;22;20002;-88
2024/01/23 09:18:00;;;;;;;20.95;5.15;;;4.50;99.90;;;;;;6343536;22;20009;-86
2024/01/23 09:20:26;;;;;;;21.17;3.65;;;4.60;99.90;;;;;;6343045;22;20019;-87
2024/01/23 09:22:52;;;;;;;22.40;4.47;;;4.60;99.90;;;;;;6343541;22;20003;-87
2024/01/23 09:25:20;;;;;;;18.25;3.38;;;4.60;99.90;;;;;;6344116;22;20014;-87
2024/01/23 09:27:48;;;;;;;26.17;5.25;;;4.60;99.90;;;;;;6344073;22;20029;-87
2024/01/23 09:30:14;;;;;;;19.63;4.30;;;4.60;99.90;;;;;;6343994;22;20433;-86
2024/01/23 09:32:40;;;;;;;24.65;4.22;;;4.60;99.90;;;;;;6343631;22;20348;-86
2024/01/23 09:35:06;;;;;;;23.13;4.35;;;4.60;99.90;;;;;;6343751;22;20041;-87
2024/01/23 09:37:32;;;;;;;19.80;3.83;;;4.70;99.90;;;;;;6343541;22;20013;-86
2024/01/23 09:39:58;;;;;;;16.65;3.72;;;4.70;99.90;;;;;;6343914;22;20017;-87
2024/01/23 09:42:25;;;;;;;23.00;5.78;;;4.70;99.90;;;;;;6343760;22;20030;-87
2024/01/23 09:44:54;;;;;;;17.83;3.55;;;4.80;99.90;;;;;;6371946;22;19994;-86
2024/01/23 09:47:23;;;;;;;10.13;2.95;;;4.80;99.90;;;;;;6343553;22;20006;-87
2024/01/23 09:49:51;;;;;;;13.43;2.85;;;4.80;99.90;;;;;;6344033;22;20085;-87
2024/01/23 09:52:19;;;;;;;16.05;3.70;;;4.90;99.90;;;;;;6343601;22;20370;-87
2024/01/23 09:54:45;;;;;;;21.38;4.30;;;4.90;99.90;;;;;;6343337;22;20017;-87
2024/01/23 09:57:12;;;;;;;16.35;3.17;;;4.90;99.90;;;;;;6343050;22;20038;-88
2024/01/23 09:59:38;;;;;;;10.30;3.60;;;5.00;99.90;;;;;;6343428;22;19998;-87
2024/01/23 10:02:08;;;;;;;16.95;3.50;;;5.00;99.90;;;;;;6343389;22;19998;-88
2024/01/23 10:04:35;;;;;;;17.50;3.85;;;5.10;99.90;;;;;;6344537;22;20436;-87
2024/01/23 10:07:07;;;;;;;14.15;2.47;;;5.10;99.90;;;;;;6343634;22;20022;-87
2024/01/23 10:09:33;;;;;;;19.98;3.85;;;5.10;99.90;;;;;;6343425;22;20437;-86
2024/01/23 10:11:59;;;;;;;19.13;3.92;;;5.20;99.90;;;;;;6370935;22;20009;-86
2024/01/23 10:14:25;;;;;;;11.68;3.22;;;5.20;99.90;;;;;;6343236;22;20003;-87
2024/01/23 10:16:51;;;;;;;18.40;4.38;;;5.30;99.90;;;;;;6343451;22;20119;-87
2024/01/23 10:19:16;;;;;;;6.93;1.70;;;5.40;99.90;;;;;;6343356;22;20010;-88
2024/01/23 10:21:42;;;;;;;14.43;2.75;;;5.40;99.90;;;;;;6343386;22;20010;-86
2024/01/23 10:24:08;;;;;;;14.23;2.90;;;5.40;99.90;;;;;;6343270;22;19994;-86
2024/01/23 10:26:34;;;;;;;13.02;2.35;;;5.50;99.90;;;;;;6343201;22;20006;-87
2024/01/23 10:29:01;;;;;;;7.80;2.20;;;5.50;99.90;;;;;;6342935;22;20033;-86
2024/01/23 10:31:27;;;;;;;10.18;2.90;;;5.60;99.90;;;;;;6343214;22;20009;-87
2024/01/23 10:33:53;;;;;;;17.73;3.15;;;5.60;99.90;;;;;;6342824;22;20002;-86
2024/01/23 10:36:19;;;;;;;9.27;2.17;;;5.70;99.90;;;;;;6342886;22;20018;-85
2024/01/23 10:38:50;;;;;;;9.88;2.80;;;5.70;99.90;;;;;;6370028;22;20009;-87
2024/01/23 10:41:18;;;;;;;14.48;2.67;;;5.80;99.90;;;;;;6370845;22;20010;-87
2024/01/23 10:43:46;;;;;;;10.93;2.33;;;5.80;99.90;;;;;;6343435;22;20522;-87
2024/01/23 10:46:12;;;;;;;9.00;1.92;;;5.80;99.90;;;;;;6343271;22;20006;-87
2024/01/23 10:48:38;;;;;;;13.00;2.63;;;5.90;99.90;;;;;;6342978;22;20077;-84
2024/01/23 10:51:21;;;;;;;11.05;2.33;;;5.90;99.90;;;;;;6342763;22;20429;-86
2024/01/23 10:54:01;;;;;;;11.63;2.40;;;5.90;99.90;;;;;;6342742;22;20013;-86
2024/01/23 10:56:41;;;;;;;4.68;2.00;;;6.00;99.90;;;;;;6342792;22;20014;-88
2024/01/23 10:59:17;;;;;;;8.00;1.98;;;6.00;99.90;;;;;;6342935;22;20326;-87
2024/01/23 11:01:48;;;;;;;7.97;2.08;;;6.00;99.90;;;;;;6342771;22;20310;-87
2024/01/23 11:04:15;;;;;;;4.57;2.00;;;6.00;99.90;;;;;;6342900;22;20328;-87
2024/01/23 11:07:03;;;;;;;7.05;2.13;;;6.10;99.90;;;;;;6342728;22;20011;-87
2024/01/23 11:09:54;;;;;;;7.38;2.60;;;6.10;99.90;;;;;;6342563;22;20007;-87
2024/01/23 11:12:26;;;;;;;11.20;2.40;;;6.10;99.90;;;;;;6342494;22;20473;-87
2024/01/23 11:14:59;;;;;;;6.80;2.80;;;6.20;99.90;;;;;;6342353;22;20093;-87
2024/01/23 11:17:25;;;;;;;10.00;2.95;;;6.20;99.90;;;;;;6342472;22;20013;-87
2024/01/23 11:20:06;;;;;;;7.38;2.60;;;6.20;99.90;;;;;;6342789;22;20003;-88
2024/01/23 11:22:32;;;;;;;10.35;2.72;;;6.30;99.90;;;;;;6342832;22;20002;-87
2024/01/23 11:24:58;;;;;;;8.07;2.58;;;6.30;99.90;;;;;;6342990;22;20041;-86
2024/01/23 11:27:25;;;;;;;4.68;1.83;;;6.30;99.90;;;;;;6343347;22;20006;-86
2024/01/23 11:29:52;;;;;;;4.00;1.40;;;6.40;99.90;;;;;;6342594;22;20441;-87
2024/01/23 11:32:26;;;;;;;4.72;1.85;;;6.50;99.90;;;;;;6342298;22;20003;-87
2024/01/23 11:35:14;;;;;;;6.97;2.33;;;6.50;99.90;;;;;;6342354;22;20017;-87
2024/01/23 11:37:56;;;;;;;11.32;1.88;;;6.60;99.90;;;;;;6342213;22;20010;-88
2024/01/23 11:40:38;;;;;;;5.35;1.73;;;6.60;99.90;;;;;;6341935;22;20018;-87
2024/01/23 11:43:07;;;;;;;8.43;1.85;;;6.70;99.90;;;;;;6342298;22;20116;-87
2024/01/23 11:45:37;;;;;;;2.58;1.30;;;6.80;99.90;;;;;;6343911;22;20502;-86
2024/01/23 11:48:04;;;;;;;7.85;1.45;;;6.90;99.90;;;;;;6344112;22;19999;-87
2024/01/23 11:50:32;;;;;;;2.78;1.38;;;6.90;99.90;;;;;;6372294;22;20009;-86
2024/01/23 11:53:00;;;;;;;5.15;1.30;;;7.00;99.90;;;;;;6343840;22;20010;-87
2024/01/23 11:55:26;;;;;;;7.50;1.40;;;7.10;99.90;;;;;;6343845;22;20093;-87
2024/01/23 11:57:59;;;;;;;5.22;1.00;;;7.20;99.90;;;;;;6344136;22;20002;-86
2024/01/23 12:00:27;;;;;;;3.28;1.20;;;7.30;99.90;;;;;;6344248;22;20003;-87
2024/01/23 12:02:53;;;;;;;1.98;1.27;;;7.40;99.90;;;;;;6344180;22;20392;-88
2024/01/23 12:05:19;;;;;;;1.33;0.70;;;7.50;99.90;;;;;;6344205;22;20009;-88
2024/01/23 12:07:46;;;;;;;6.65;1.23;;;7.60;99.90;;;;;;6344006;22;20005;-87
2024/01/23 12:10:17;;;;;;;5.28;0.95;;;7.70;99.90;;;;;;6344246;22;20463;-88
2024/01/23 12:12:42;;;;;;;1.58;0.60;;;7.80;99.90;;;;;;6344056;22;19998;-88
2024/01/23 12:15:09;;;;;;;1.65;0.70;;;7.80;99.90;;;;;;6343966;22;20059;-87
2024/01/23 12:17:35;;;;;;;4.50;0.60;;;7.90;99.90;;;;;;6344850;22;20006;-86
2024/01/23 12:20:04;;;;;;;3.45;0.80;;;8.00;99.90;;;;;;6343605;22;20014;-87
2024/01/23 12:22:30;;;;;;;1.50;0.70;;;8.00;99.90;;;;;;6344029;22;20007;-86
2024/01/23 12:24:56;;;;;;;1.70;0.55;;;8.10;99.90;;;;;;6344776;22;20009;-87
2024/01/23 12:27:23;;;;;;;1.10;0.60;;;8.20;99.90;;;;;;6344192;22;20401;-88
2024/01/23 12:29:49;;;;;;;1.25;0.65;;;8.30;99.90;;;;;;6344130;22;20026;-86
2024/01/23 12:32:15;;;;;;;1.45;0.60;;;8.30;99.90;;;;;;6343973;22;20318;-87
2024/01/23 12:34:40;;;;;;;1.95;0.93;;;8.40;99.90;;;;;;6343979;22;20089;-87
2024/01/23 12:37:07;;;;;;;2.08;0.70;;;8.40;99.90;;;;;;6343967;22;20002;-88
2024/01/23 12:39:33;;;;;;;2.25;0.73;;;8.40;99.90;;;;;;6344350;22;20029;-88
2024/01/23 12:42:00;;;;;;;0.90;0.32;;;8.50;99.90;;;;;;6343886;22;20011;-88
2024/01/23 12:44:26;;;;;;;3.65;0.68;;;8.50;99.90;;;;;;6343880;22;19998;-89
2024/01/23 12:46:52;;;;;;;1.67;0.75;;;8.60;99.90;;;;;;6344045;22;20002;-87
2024/01/23 12:49:18;;;;;;;3.00;0.80;;;8.70;99.90;;;;;;6344171;22;20025;-87
2024/01/23 12:51:49;;;;;;;0.70;0.60;;;8.70;99.90;;;;;;6343518;22;20334;-85
2024/01/23 12:54:15;;;;;;;4.43;0.73;;;8.80;99.90;;;;;;6343821;22;20013;-88
2024/01/23 12:56:41;;;;;;;1.02;0.70;;;8.80;99.90;;;;;;6343242;22;20042;-89
2024/01/23 12:59:07;;;;;;;0.77;0.77;;;8.90;99.90;;;;;;6343697;22;20006;-88